sensor_id;sensor_type;location;lat;lon;timestamp;P1;durP1;ratioP1;P2;durP2;ratioP2
5890;SDS011;2971;52.420;7.080;2023-02-25T00:00:01;18.77;;;4.00;;
5890;SDS011;2971;52.420;7.080;2023-02-25T00:02:34;26.00;;;4.80;;
5890;SDS011;2971;52.420;7.080;2023-02-25T00:05:00;17.80;;;4.20;;
5890;SDS011;2971;52.420;7.080;2023-02-25T00:07:30;17.03;;;4.50;;
5890;SDS011;2971;52.420;7.080;2023-02-25T00:09:56;16.33;;;4.30;;
5890;SDS011;2971;52.420;7.080;2023-02-25T00:12:22;18.23;;;4.17;;
5890;SDS011;2971;52.420;7.080;2023-02-25T00:14:47;24.33;;;4.30;;
5890;SDS011;2971;52.420;7.080;2023-02-25T00:17:12;19.37;;;4.27;;
5890;SDS011;2971;52.420;7.080;2023-02-25T00:19:38;16.87;;;4.80;;
5890;SDS011;2971;52.420;7.080;2023-02-25T00:22:03;16.57;;;3.90;;
5890;SDS011;2971;52.420;7.080;2023-02-25T00:24:29;16.37;;;4.07;;
5890;SDS011;2971;52.420;7.080;2023-02-25T00:26:54;17.43;;;3.87;;
5890;SDS011;2971;52.420;7.080;2023-02-25T00:29:19;16.30;;;4.20;;
5890;SDS011;2971;52.420;7.080;2023-02-25T00:31:46;22.20;;;4.80;;
5890;SDS011;2971;52.420;7.080;2023-02-25T00:34:11;18.30;;;4.40;;
5890;SDS011;2971;52.420;7.080;2023-02-25T00:36:37;19.37;;;5.07;;
5890;SDS011;2971;52.420;7.080;2023-02-25T00:39:03;20.33;;;4.57;;
5890;SDS011;2971;52.420;7.080;2023-02-25T00:41:29;18.80;;;3.97;;
5890;SDS011;2971;52.420;7.080;2023-02-25T00:43:56;21.73;;;4.77;;
5890;SDS011;2971;52.420;7.080;2023-02-25T00:46:22;21.03;;;4.50;;
5890;SDS011;2971;52.420;7.080;2023-02-25T00:48:48;18.97;;;4.33;;
5890;SDS011;2971;52.420;7.080;2023-02-25T00:51:14;27.90;;;3.90;;
5890;SDS011;2971;52.420;7.080;2023-02-25T00:53:41;16.13;;;4.10;;
5890;SDS011;2971;52.420;7.080;2023-02-25T00:56:08;17.30;;;3.83;;
5890;SDS011;2971;52.420;7.080;2023-02-25T00:58:38;18.87;;;3.90;;
5890;SDS011;2971;52.420;7.080;2023-02-25T01:01:04;12.87;;;4.03;;
5890;SDS011;2971;52.420;7.080;2023-02-25T01:03:31;18.80;;;3.77;;
5890;SDS011;2971;52.420;7.080;2023-02-25T01:05:56;21.20;;;4.40;;
5890;SDS011;2971;52.420;7.080;2023-02-25T01:08:22;26.73;;;4.67;;
5890;SDS011;2971;52.420;7.080;2023-02-25T01:10:48;25.53;;;4.90;;
5890;SDS011;2971;52.420;7.080;2023-02-25T01:13:13;17.93;;;4.47;;
5890;SDS011;2971;52.420;7.080;2023-02-25T01:15:39;20.90;;;4.40;;
5890;SDS011;2971;52.420;7.080;2023-02-25T01:18:05;19.43;;;4.13;;
5890;SDS011;2971;52.420;7.080;2023-02-25T01:20:31;20.93;;;4.33;;
5890;SDS011;2971;52.420;7.080;2023-02-25T01:22:56;21.17;;;4.13;;
5890;SDS011;2971;52.420;7.080;2023-02-25T01:25:23;20.73;;;4.33;;
5890;SDS011;2971;52.420;7.080;2023-02-25T01:27:52;27.60;;;5.30;;
5890;SDS011;2971;52.420;7.080;2023-02-25T01:30:19;25.63;;;4.83;;
5890;SDS011;2971;52.420;7.080;2023-02-25T01:32:44;21.63;;;5.00;;
5890;SDS011;2971;52.420;7.080;2023-02-25T01:35:10;20.97;;;3.93;;
5890;SDS011;2971;52.420;7.080;2023-02-25T01:37:35;25.47;;;4.80;;
5890;SDS011;2971;52.420;7.080;2023-02-25T01:40:00;21.63;;;5.17;;
5890;SDS011;2971;52.420;7.080;2023-02-25T01:42:26;26.50;;;5.17;;
5890;SDS011;2971;52.420;7.080;2023-02-25T01:50:24;25.17;;;4.97;;
5890;SDS011;2971;52.420;7.080;2023-02-25T01:52:51;22.70;;;5.07;;
5890;SDS011;2971;52.420;7.080;2023-02-25T01:55:18;25.90;;;4.73;;
5890;SDS011;2971;52.420;7.080;2023-02-25T01:57:43;28.57;;;5.40;;
5890;SDS011;2971;52.420;7.080;2023-02-25T02:00:09;25.43;;;4.93;;
5890;SDS011;2971;52.420;7.080;2023-02-25T02:02:40;21.53;;;4.67;;
5890;SDS011;2971;52.420;7.080;2023-02-25T02:05:09;25.47;;;5.40;;
5890;SDS011;2971;52.420;7.080;2023-02-25T02:07:35;22.67;;;5.10;;
5890;SDS011;2971;52.420;7.080;2023-02-25T02:10:00;24.63;;;5.73;;
5890;SDS011;2971;52.420;7.080;2023-02-25T02:12:27;19.17;;;4.23;;
5890;SDS011;2971;52.420;7.080;2023-02-25T02:14:55;19.70;;;4.50;;
5890;SDS011;2971;52.420;7.080;2023-02-25T02:17:29;25.23;;;4.87;;
5890;SDS011;2971;52.420;7.080;2023-02-25T02:28:31;24.53;;;5.20;;
5890;SDS011;2971;52.420;7.080;2023-02-25T02:37:05;21.40;;;5.03;;
5890;SDS011;2971;52.420;7.080;2023-02-25T02:42:30;24.87;;;5.77;;
5890;SDS011;2971;52.420;7.080;2023-02-25T02:45:15;18.47;;;4.43;;
5890;SDS011;2971;52.420;7.080;2023-02-25T02:47:44;20.47;;;4.63;;
5890;SDS011;2971;52.420;7.080;2023-02-25T02:50:15;19.20;;;5.17;;
5890;SDS011;2971;52.420;7.080;2023-02-25T02:52:46;26.60;;;5.53;;
5890;SDS011;2971;52.420;7.080;2023-02-25T02:55:21;24.07;;;5.07;;
5890;SDS011;2971;52.420;7.080;2023-02-25T02:57:52;21.67;;;5.27;;
5890;SDS011;2971;52.420;7.080;2023-02-25T03:00:22;22.57;;;4.90;;
5890;SDS011;2971;52.420;7.080;2023-02-25T03:02:51;19.00;;;4.87;;
5890;SDS011;2971;52.420;7.080;2023-02-25T03:05:22;18.87;;;5.07;;
5890;SDS011;2971;52.420;7.080;2023-02-25T03:07:52;21.40;;;5.17;;
5890;SDS011;2971;52.420;7.080;2023-02-25T03:10:24;23.37;;;5.20;;
5890;SDS011;2971;52.420;7.080;2023-02-25T03:12:50;25.40;;;5.20;;
5890;SDS011;2971;52.420;7.080;2023-02-25T03:15:16;25.17;;;5.67;;
5890;SDS011;2971;52.420;7.080;2023-02-25T03:17:43;23.27;;;4.87;;
5890;SDS011;2971;52.420;7.080;2023-02-25T03:22:47;25.43;;;4.47;;
5890;SDS011;2971;52.420;7.080;2023-02-25T03:25:20;27.10;;;5.13;;
5890;SDS011;2971;52.420;7.080;2023-02-25T03:27:47;26.10;;;5.47;;
5890;SDS011;2971;52.420;7.080;2023-02-25T03:32:46;25.70;;;5.33;;
5890;SDS011;2971;52.420;7.080;2023-02-25T03:35:18;29.27;;;5.23;;
5890;SDS011;2971;52.420;7.080;2023-02-25T03:37:45;25.17;;;5.37;;
5890;SDS011;2971;52.420;7.080;2023-02-25T03:40:13;23.30;;;4.60;;
5890;SDS011;2971;52.420;7.080;2023-02-25T03:43:23;22.47;;;4.73;;
5890;SDS011;2971;52.420;7.080;2023-02-25T03:45:31;21.53;;;4.60;;
5890;SDS011;2971;52.420;7.080;2023-02-25T03:47:58;24.83;;;5.43;;
5890;SDS011;2971;52.420;7.080;2023-02-25T03:50:25;22.10;;;5.53;;
5890;SDS011;2971;52.420;7.080;2023-02-25T03:52:53;24.70;;;5.03;;
5890;SDS011;2971;52.420;7.080;2023-02-25T03:55:18;22.03;;;4.80;;
5890;SDS011;2971;52.420;7.080;2023-02-25T03:57:44;23.63;;;5.53;;
5890;SDS011;2971;52.420;7.080;2023-02-25T04:00:18;23.07;;;4.80;;
5890;SDS011;2971;52.420;7.080;2023-02-25T04:02:47;24.77;;;4.70;;
5890;SDS011;2971;52.420;7.080;2023-02-25T04:05:13;28.70;;;5.53;;
5890;SDS011;2971;52.420;7.080;2023-02-25T04:07:39;21.73;;;4.93;;
5890;SDS011;2971;52.420;7.080;2023-02-25T04:10:06;27.57;;;5.63;;
5890;SDS011;2971;52.420;7.080;2023-02-25T04:12:32;26.37;;;5.43;;
5890;SDS011;2971;52.420;7.080;2023-02-25T04:14:58;25.97;;;4.47;;
5890;SDS011;2971;52.420;7.080;2023-02-25T04:17:24;23.80;;;4.73;;
5890;SDS011;2971;52.420;7.080;2023-02-25T04:19:49;21.63;;;4.87;;
5890;SDS011;2971;52.420;7.080;2023-02-25T04:22:15;17.13;;;4.27;;
5890;SDS011;2971;52.420;7.080;2023-02-25T04:24:40;18.07;;;4.13;;
5890;SDS011;2971;52.420;7.080;2023-02-25T04:27:06;21.77;;;5.27;;
5890;SDS011;2971;52.420;7.080;2023-02-25T04:29:31;21.70;;;4.90;;
5890;SDS011;2971;52.420;7.080;2023-02-25T04:31:57;23.10;;;5.07;;
5890;SDS011;2971;52.420;7.080;2023-02-25T04:34:22;21.87;;;4.33;;
5890;SDS011;2971;52.420;7.080;2023-02-25T04:36:47;23.57;;;4.70;;
5890;SDS011;2971;52.420;7.080;2023-02-25T04:39:13;26.13;;;4.77;;
5890;SDS011;2971;52.420;7.080;2023-02-25T04:41:40;24.00;;;4.90;;
5890;SDS011;2971;52.420;7.080;2023-02-25T04:44:06;22.40;;;4.80;;
5890;SDS011;2971;52.420;7.080;2023-02-25T04:46:32;26.83;;;5.83;;
5890;SDS011;2971;52.420;7.080;2023-02-25T04:49:00;27.67;;;7.17;;
5890;SDS011;2971;52.420;7.080;2023-02-25T04:51:25;19.70;;;5.37;;
5890;SDS011;2971;52.420;7.080;2023-02-25T04:53:51;22.17;;;5.23;;
5890;SDS011;2971;52.420;7.080;2023-02-25T04:56:17;20.83;;;5.10;;
5890;SDS011;2971;52.420;7.080;2023-02-25T04:58:42;25.90;;;5.33;;
5890;SDS011;2971;52.420;7.080;2023-02-25T05:01:08;22.07;;;5.53;;
5890;SDS011;2971;52.420;7.080;2023-02-25T05:03:34;20.53;;;4.70;;
5890;SDS011;2971;52.420;7.080;2023-02-25T05:06:00;29.67;;;5.10;;
5890;SDS011;2971;52.420;7.080;2023-02-25T05:08:26;18.23;;;5.00;;
5890;SDS011;2971;52.420;7.080;2023-02-25T05:10:51;26.23;;;5.77;;
5890;SDS011;2971;52.420;7.080;2023-02-25T05:13:17;22.77;;;5.53;;
5890;SDS011;2971;52.420;7.080;2023-02-25T05:15:44;23.80;;;4.47;;
5890;SDS011;2971;52.420;7.080;2023-02-25T05:18:09;20.97;;;4.80;;
5890;SDS011;2971;52.420;7.080;2023-02-25T05:20:42;19.07;;;4.27;;
5890;SDS011;2971;52.420;7.080;2023-02-25T05:23:11;16.93;;;4.63;;
5890;SDS011;2971;52.420;7.080;2023-02-25T05:25:37;22.60;;;4.77;;
5890;SDS011;2971;52.420;7.080;2023-02-25T05:28:06;19.67;;;4.87;;
5890;SDS011;2971;52.420;7.080;2023-02-25T05:30:32;22.03;;;4.43;;
5890;SDS011;2971;52.420;7.080;2023-02-25T05:32:57;16.43;;;4.53;;
5890;SDS011;2971;52.420;7.080;2023-02-25T05:35:23;17.97;;;4.43;;
5890;SDS011;2971;52.420;7.080;2023-02-25T05:37:48;15.93;;;4.13;;
5890;SDS011;2971;52.420;7.080;2023-02-25T05:40:14;16.20;;;4.10;;
5890;SDS011;2971;52.420;7.080;2023-02-25T05:42:39;15.33;;;3.47;;
5890;SDS011;2971;52.420;7.080;2023-02-25T05:45:08;13.83;;;4.00;;
5890;SDS011;2971;52.420;7.080;2023-02-25T05:47:34;20.40;;;4.40;;
5890;SDS011;2971;52.420;7.080;2023-02-25T05:49:59;12.33;;;3.20;;
5890;SDS011;2971;52.420;7.080;2023-02-25T05:52:25;19.27;;;4.43;;
5890;SDS011;2971;52.420;7.080;2023-02-25T05:54:50;12.33;;;3.63;;
5890;SDS011;2971;52.420;7.080;2023-02-25T05:57:16;12.77;;;3.53;;
5890;SDS011;2971;52.420;7.080;2023-02-25T05:59:41;9.47;;;2.90;;
5890;SDS011;2971;52.420;7.080;2023-02-25T06:02:06;15.37;;;3.50;;
5890;SDS011;2971;52.420;7.080;2023-02-25T06:04:32;16.57;;;2.87;;
5890;SDS011;2971;52.420;7.080;2023-02-25T06:06:57;14.40;;;3.13;;
5890;SDS011;2971;52.420;7.080;2023-02-25T06:09:22;11.27;;;2.90;;
5890;SDS011;2971;52.420;7.080;2023-02-25T06:11:48;12.10;;;2.90;;
5890;SDS011;2971;52.420;7.080;2023-02-25T06:14:14;11.67;;;2.83;;
5890;SDS011;2971;52.420;7.080;2023-02-25T06:16:39;6.37;;;1.90;;
5890;SDS011;2971;52.420;7.080;2023-02-25T06:19:06;6.47;;;2.03;;
5890;SDS011;2971;52.420;7.080;2023-02-25T06:21:32;9.90;;;2.20;;
5890;SDS011;2971;52.420;7.080;2023-02-25T06:23:59;7.33;;;2.30;;
5890;SDS011;2971;52.420;7.080;2023-02-25T06:26:26;8.67;;;2.30;;
5890;SDS011;2971;52.420;7.080;2023-02-25T06:28:51;7.03;;;2.03;;
5890;SDS011;2971;52.420;7.080;2023-02-25T06:31:18;11.40;;;2.83;;
5890;SDS011;2971;52.420;7.080;2023-02-25T06:33:44;6.93;;;2.13;;
5890;SDS011;2971;52.420;7.080;2023-02-25T06:36:11;6.27;;;1.77;;
5890;SDS011;2971;52.420;7.080;2023-02-25T06:38:36;9.97;;;2.40;;
5890;SDS011;2971;52.420;7.080;2023-02-25T06:41:06;10.77;;;2.60;;
5890;SDS011;2971;52.420;7.080;2023-02-25T06:43:33;12.93;;;2.80;;
5890;SDS011;2971;52.420;7.080;2023-02-25T06:46:02;9.03;;;2.73;;
5890;SDS011;2971;52.420;7.080;2023-02-25T06:48:28;13.30;;;3.50;;
5890;SDS011;2971;52.420;7.080;2023-02-25T06:50:53;12.50;;;2.63;;
5890;SDS011;2971;52.420;7.080;2023-02-25T06:53:19;13.40;;;3.10;;
5890;SDS011;2971;52.420;7.080;2023-02-25T06:55:44;14.20;;;3.13;;
5890;SDS011;2971;52.420;7.080;2023-02-25T06:58:09;10.83;;;2.73;;
5890;SDS011;2971;52.420;7.080;2023-02-25T07:00:35;10.23;;;2.37;;
5890;SDS011;2971;52.420;7.080;2023-02-25T07:03:01;8.73;;;2.37;;
5890;SDS011;2971;52.420;7.080;2023-02-25T07:05:27;8.80;;;2.63;;
5890;SDS011;2971;52.420;7.080;2023-02-25T07:07:52;7.03;;;2.07;;
5890;SDS011;2971;52.420;7.080;2023-02-25T07:10:18;5.67;;;1.80;;
5890;SDS011;2971;52.420;7.080;2023-02-25T07:12:43;5.40;;;2.00;;
5890;SDS011;2971;52.420;7.080;2023-02-25T07:15:09;6.93;;;2.03;;
5890;SDS011;2971;52.420;7.080;2023-02-25T07:17:34;5.10;;;2.10;;
5890;SDS011;2971;52.420;7.080;2023-02-25T07:20:01;6.43;;;1.50;;
5890;SDS011;2971;52.420;7.080;2023-02-25T07:22:27;3.70;;;1.80;;
5890;SDS011;2971;52.420;7.080;2023-02-25T07:24:52;6.00;;;1.73;;
5890;SDS011;2971;52.420;7.080;2023-02-25T07:27:17;3.73;;;1.40;;
5890;SDS011;2971;52.420;7.080;2023-02-25T07:29:43;8.30;;;1.80;;
5890;SDS011;2971;52.420;7.080;2023-02-25T07:32:08;7.03;;;1.70;;
5890;SDS011;2971;52.420;7.080;2023-02-25T07:34:34;5.57;;;2.00;;
5890;SDS011;2971;52.420;7.080;2023-02-25T07:37:01;4.50;;;1.87;;
5890;SDS011;2971;52.420;7.080;2023-02-25T07:39:26;5.77;;;1.90;;
5890;SDS011;2971;52.420;7.080;2023-02-25T07:41:52;6.10;;;1.97;;
5890;SDS011;2971;52.420;7.080;2023-02-25T07:44:17;9.43;;;2.57;;
5890;SDS011;2971;52.420;7.080;2023-02-25T07:46:42;4.47;;;1.80;;
5890;SDS011;2971;52.420;7.080;2023-02-25T07:49:08;5.77;;;2.23;;
5890;SDS011;2971;52.420;7.080;2023-02-25T07:51:33;6.03;;;2.00;;
5890;SDS011;2971;52.420;7.080;2023-02-25T07:53:58;6.07;;;1.90;;
5890;SDS011;2971;52.420;7.080;2023-02-25T07:56:25;7.53;;;2.13;;
5890;SDS011;2971;52.420;7.080;2023-02-25T07:58:52;6.03;;;1.77;;
5890;SDS011;2971;52.420;7.080;2023-02-25T08:03:51;4.70;;;2.00;;
5890;SDS011;2971;52.420;7.080;2023-02-25T08:06:17;5.47;;;2.10;;
5890;SDS011;2971;52.420;7.080;2023-02-25T08:08:43;8.17;;;1.97;;
5890;SDS011;2971;52.420;7.080;2023-02-25T08:11:10;5.70;;;1.77;;
5890;SDS011;2971;52.420;7.080;2023-02-25T08:13:36;6.10;;;1.93;;
5890;SDS011;2971;52.420;7.080;2023-02-25T08:16:03;6.87;;;2.00;;
5890;SDS011;2971;52.420;7.080;2023-02-25T08:18:29;4.67;;;1.67;;
5890;SDS011;2971;52.420;7.080;2023-02-25T08:20:55;6.67;;;2.13;;
5890;SDS011;2971;52.420;7.080;2023-02-25T08:23:22;6.40;;;2.10;;
5890;SDS011;2971;52.420;7.080;2023-02-25T08:25:51;4.33;;;2.20;;
5890;SDS011;2971;52.420;7.080;2023-02-25T08:28:17;5.87;;;1.70;;
5890;SDS011;2971;52.420;7.080;2023-02-25T08:30:42;4.60;;;1.57;;
5890;SDS011;2971;52.420;7.080;2023-02-25T08:33:08;4.63;;;1.77;;
5890;SDS011;2971;52.420;7.080;2023-02-25T08:35:34;4.50;;;1.87;;
5890;SDS011;2971;52.420;7.080;2023-02-25T08:37:59;5.73;;;2.20;;
5890;SDS011;2971;52.420;7.080;2023-02-25T08:40:25;6.03;;;2.03;;
5890;SDS011;2971;52.420;7.080;2023-02-25T08:42:50;4.03;;;1.70;;
5890;SDS011;2971;52.420;7.080;2023-02-25T08:45:15;4.37;;;1.77;;
5890;SDS011;2971;52.420;7.080;2023-02-25T08:47:41;4.67;;;1.90;;
5890;SDS011;2971;52.420;7.080;2023-02-25T08:50:06;5.63;;;2.00;;
5890;SDS011;2971;52.420;7.080;2023-02-25T08:52:33;4.43;;;2.00;;
5890;SDS011;2971;52.420;7.080;2023-02-25T08:54:59;5.53;;;1.80;;
5890;SDS011;2971;52.420;7.080;2023-02-25T08:57:25;6.90;;;2.87;;
5890;SDS011;2971;52.420;7.080;2023-02-25T08:59:51;8.70;;;2.33;;
5890;SDS011;2971;52.420;7.080;2023-02-25T09:02:16;8.57;;;2.90;;
5890;SDS011;2971;52.420;7.080;2023-02-25T09:04:42;8.50;;;3.13;;
5890;SDS011;2971;52.420;7.080;2023-02-25T09:07:07;12.03;;;4.13;;
5890;SDS011;2971;52.420;7.080;2023-02-25T09:09:33;7.07;;;3.83;;
5890;SDS011;2971;52.420;7.080;2023-02-25T09:11:58;9.43;;;2.53;;
5890;SDS011;2971;52.420;7.080;2023-02-25T09:14:24;11.17;;;2.63;;
5890;SDS011;2971;52.420;7.080;2023-02-25T09:16:50;10.53;;;3.40;;
5890;SDS011;2971;52.420;7.080;2023-02-25T09:19:15;7.63;;;2.97;;
5890;SDS011;2971;52.420;7.080;2023-02-25T09:21:42;6.47;;;2.73;;
5890;SDS011;2971;52.420;7.080;2023-02-25T09:24:09;7.33;;;2.40;;
5890;SDS011;2971;52.420;7.080;2023-02-25T09:26:34;9.17;;;2.80;;
5890;SDS011;2971;52.420;7.080;2023-02-25T09:29:01;13.07;;;3.40;;
5890;SDS011;2971;52.420;7.080;2023-02-25T09:31:29;10.77;;;2.67;;
5890;SDS011;2971;52.420;7.080;2023-02-25T09:33:55;9.90;;;3.23;;
5890;SDS011;2971;52.420;7.080;2023-02-25T09:36:21;7.23;;;2.87;;
5890;SDS011;2971;52.420;7.080;2023-02-25T09:38:47;7.50;;;2.57;;
5890;SDS011;2971;52.420;7.080;2023-02-25T09:43:59;11.40;;;3.27;;
5890;SDS011;2971;52.420;7.080;2023-02-25T09:46:26;12.07;;;2.30;;
5890;SDS011;2971;52.420;7.080;2023-02-25T09:48:54;8.57;;;3.10;;
5890;SDS011;2971;52.420;7.080;2023-02-25T09:51:30;8.43;;;2.70;;
5890;SDS011;2971;52.420;7.080;2023-02-25T09:56:43;9.70;;;2.90;;
5890;SDS011;2971;52.420;7.080;2023-02-25T09:59:10;9.07;;;2.70;;
5890;SDS011;2971;52.420;7.080;2023-02-25T10:02:43;12.80;;;2.97;;
5890;SDS011;2971;52.420;7.080;2023-02-25T10:04:50;13.80;;;2.70;;
5890;SDS011;2971;52.420;7.080;2023-02-25T10:07:21;9.47;;;2.93;;
5890;SDS011;2971;52.420;7.080;2023-02-25T10:28:39;9.53;;;2.67;;
5890;SDS011;2971;52.420;7.080;2023-02-25T10:33:43;5.30;;;2.13;;
5890;SDS011;2971;52.420;7.080;2023-02-25T10:38:44;9.70;;;2.60;;
5890;SDS011;2971;52.420;7.080;2023-02-25T10:41:11;9.27;;;2.80;;
5890;SDS011;2971;52.420;7.080;2023-02-25T10:43:37;8.43;;;2.67;;
5890;SDS011;2971;52.420;7.080;2023-02-25T10:46:13;9.73;;;3.00;;
5890;SDS011;2971;52.420;7.080;2023-02-25T10:48:42;7.40;;;2.60;;
5890;SDS011;2971;52.420;7.080;2023-02-25T10:51:15;8.50;;;2.30;;
5890;SDS011;2971;52.420;7.080;2023-02-25T10:54:03;6.93;;;2.50;;
5890;SDS011;2971;52.420;7.080;2023-02-25T10:56:47;9.33;;;2.63;;
5890;SDS011;2971;52.420;7.080;2023-02-25T11:01:54;8.10;;;2.60;;
5890;SDS011;2971;52.420;7.080;2023-02-25T11:04:27;8.17;;;2.47;;
5890;SDS011;2971;52.420;7.080;2023-02-25T11:06:55;7.77;;;2.47;;
5890;SDS011;2971;52.420;7.080;2023-02-25T11:14:25;5.83;;;2.30;;
5890;SDS011;2971;52.420;7.080;2023-02-25T11:16:58;7.77;;;2.17;;
5890;SDS011;2971;52.420;7.080;2023-02-25T11:19:28;3.87;;;2.00;;
5890;SDS011;2971;52.420;7.080;2023-02-25T11:21:56;4.43;;;1.80;;
5890;SDS011;2971;52.420;7.080;2023-02-25T11:26:55;5.40;;;2.30;;
5890;SDS011;2971;52.420;7.080;2023-02-25T11:29:22;6.73;;;2.20;;
5890;SDS011;2971;52.420;7.080;2023-02-25T11:31:58;4.87;;;1.97;;
5890;SDS011;2971;52.420;7.080;2023-02-25T11:34:28;8.23;;;2.20;;
5890;SDS011;2971;52.420;7.080;2023-02-25T11:36:54;6.27;;;2.30;;
5890;SDS011;2971;52.420;7.080;2023-02-25T11:39:25;5.20;;;1.70;;
5890;SDS011;2971;52.420;7.080;2023-02-25T11:41:56;3.03;;;1.40;;
5890;SDS011;2971;52.420;7.080;2023-02-25T11:52:12;3.03;;;1.57;;
5890;SDS011;2971;52.420;7.080;2023-02-25T12:00:21;4.27;;;1.70;;
5890;SDS011;2971;52.420;7.080;2023-02-25T12:02:53;3.93;;;1.90;;
5890;SDS011;2971;52.420;7.080;2023-02-25T12:05:42;4.07;;;1.60;;
5890;SDS011;2971;52.420;7.080;2023-02-25T12:08:29;3.47;;;1.50;;
5890;SDS011;2971;52.420;7.080;2023-02-25T12:30:38;5.10;;;2.10;;
5890;SDS011;2971;52.420;7.080;2023-02-25T12:45:05;4.37;;;1.83;;
5890;SDS011;2971;52.420;7.080;2023-02-25T12:53:38;4.77;;;1.90;;
5890;SDS011;2971;52.420;7.080;2023-02-25T13:10:50;5.93;;;2.50;;
5890;SDS011;2971;52.420;7.080;2023-02-25T13:21:00;4.27;;;1.60;;
5890;SDS011;2971;52.420;7.080;2023-02-25T13:37:27;3.90;;;2.07;;
5890;SDS011;2971;52.420;7.080;2023-02-25T14:07:28;4.97;;;2.03;;
5890;SDS011;2971;52.420;7.080;2023-02-25T14:13:04;5.57;;;2.00;;
5890;SDS011;2971;52.420;7.080;2023-02-25T14:19:11;3.13;;;1.63;;
5890;SDS011;2971;52.420;7.080;2023-02-25T14:21:33;6.73;;;2.17;;
5890;SDS011;2971;52.420;7.080;2023-02-25T14:26:46;4.73;;;2.17;;
5890;SDS011;2971;52.420;7.080;2023-02-25T14:43:34;3.07;;;1.70;;
5890;SDS011;2971;52.420;7.080;2023-02-25T14:56:45;2.93;;;1.60;;
5890;SDS011;2971;52.420;7.080;2023-02-25T15:21:49;3.87;;;1.67;;
5890;SDS011;2971;52.420;7.080;2023-02-25T15:26:50;6.23;;;2.30;;
5890;SDS011;2971;52.420;7.080;2023-02-25T15:34:37;6.37;;;2.20;;
5890;SDS011;2971;52.420;7.080;2023-02-25T15:37:30;5.87;;;2.30;;
5890;SDS011;2971;52.420;7.080;2023-02-25T15:40:42;4.93;;;2.30;;
5890;SDS011;2971;52.420;7.080;2023-02-25T15:47:51;6.10;;;2.50;;
5890;SDS011;2971;52.420;7.080;2023-02-25T15:55:36;4.87;;;2.10;;
5890;SDS011;2971;52.420;7.080;2023-02-25T16:13:58;5.87;;;2.23;;
5890;SDS011;2971;52.420;7.080;2023-02-25T16:16:24;6.03;;;2.13;;
5890;SDS011;2971;52.420;7.080;2023-02-25T16:18:51;6.33;;;2.60;;
5890;SDS011;2971;52.420;7.080;2023-02-25T16:21:25;4.70;;;2.10;;
5890;SDS011;2971;52.420;7.080;2023-02-25T16:24:05;8.27;;;2.47;;
5890;SDS011;2971;52.420;7.080;2023-02-25T16:35:17;6.77;;;2.43;;
5890;SDS011;2971;52.420;7.080;2023-02-25T16:40:34;7.27;;;2.77;;
5890;SDS011;2971;52.420;7.080;2023-02-25T16:43:01;6.23;;;2.70;;
5890;SDS011;2971;52.420;7.080;2023-02-25T16:45:38;6.53;;;2.37;;
5890;SDS011;2971;52.420;7.080;2023-02-25T16:48:13;5.47;;;2.67;;
5890;SDS011;2971;52.420;7.080;2023-02-25T16:50:43;5.30;;;2.37;;
5890;SDS011;2971;52.420;7.080;2023-02-25T16:53:14;6.97;;;2.07;;
5890;SDS011;2971;52.420;7.080;2023-02-25T16:55:45;6.30;;;2.20;;
5890;SDS011;2971;52.420;7.080;2023-02-25T17:00:50;8.63;;;2.30;;
5890;SDS011;2971;52.420;7.080;2023-02-25T17:03:21;10.13;;;1.90;;
5890;SDS011;2971;52.420;7.080;2023-02-25T17:05:58;6.53;;;2.20;;
5890;SDS011;2971;52.420;7.080;2023-02-25T17:08:26;6.67;;;2.20;;
5890;SDS011;2971;52.420;7.080;2023-02-25T17:10:52;6.50;;;2.50;;
5890;SDS011;2971;52.420;7.080;2023-02-25T17:13:41;9.90;;;3.67;;
5890;SDS011;2971;52.420;7.080;2023-02-25T17:16:06;8.93;;;3.27;;
5890;SDS011;2971;52.420;7.080;2023-02-25T17:18:46;9.10;;;4.10;;
5890;SDS011;2971;52.420;7.080;2023-02-25T17:21:16;7.93;;;3.37;;
5890;SDS011;2971;52.420;7.080;2023-02-25T17:23:49;6.67;;;3.03;;
5890;SDS011;2971;52.420;7.080;2023-02-25T17:26:15;12.60;;;3.80;;
5890;SDS011;2971;52.420;7.080;2023-02-25T17:28:43;7.03;;;3.07;;
5890;SDS011;2971;52.420;7.080;2023-02-25T17:31:10;7.67;;;3.60;;
5890;SDS011;2971;52.420;7.080;2023-02-25T17:33:47;10.63;;;3.60;;
5890;SDS011;2971;52.420;7.080;2023-02-25T17:36:34;9.90;;;3.53;;
5890;SDS011;2971;52.420;7.080;2023-02-25T17:39:04;9.07;;;3.30;;
5890;SDS011;2971;52.420;7.080;2023-02-25T17:41:32;11.53;;;3.47;;
5890;SDS011;2971;52.420;7.080;2023-02-25T17:43:58;9.67;;;3.47;;
5890;SDS011;2971;52.420;7.080;2023-02-25T17:48:53;6.30;;;2.60;;
5890;SDS011;2971;52.420;7.080;2023-02-25T17:51:28;8.83;;;2.80;;
5890;SDS011;2971;52.420;7.080;2023-02-25T17:53:56;6.70;;;2.70;;
5890;SDS011;2971;52.420;7.080;2023-02-25T17:56:26;9.07;;;3.23;;
5890;SDS011;2971;52.420;7.080;2023-02-25T17:58:58;7.70;;;3.53;;
5890;SDS011;2971;52.420;7.080;2023-02-25T18:01:26;8.17;;;3.33;;
5890;SDS011;2971;52.420;7.080;2023-02-25T18:03:54;9.63;;;4.20;;
5890;SDS011;2971;52.420;7.080;2023-02-25T18:06:31;16.53;;;7.90;;
5890;SDS011;2971;52.420;7.080;2023-02-25T18:08:58;16.80;;;9.47;;
5890;SDS011;2971;52.420;7.080;2023-02-25T18:11:32;12.53;;;6.80;;
5890;SDS011;2971;52.420;7.080;2023-02-25T18:14:16;9.40;;;4.90;;
5890;SDS011;2971;52.420;7.080;2023-02-25T18:16:47;8.53;;;3.47;;
5890;SDS011;2971;52.420;7.080;2023-02-25T18:22:44;9.53;;;3.97;;
5890;SDS011;2971;52.420;7.080;2023-02-25T18:25:07;7.20;;;2.67;;
5890;SDS011;2971;52.420;7.080;2023-02-25T18:27:58;4.90;;;2.53;;
5890;SDS011;2971;52.420;7.080;2023-02-25T18:30:25;5.53;;;1.90;;
5890;SDS011;2971;52.420;7.080;2023-02-25T18:32:52;3.07;;;1.80;;
5890;SDS011;2971;52.420;7.080;2023-02-25T18:35:18;6.70;;;2.27;;
5890;SDS011;2971;52.420;7.080;2023-02-25T18:37:44;7.53;;;2.17;;
5890;SDS011;2971;52.420;7.080;2023-02-25T18:42:53;6.27;;;2.27;;
5890;SDS011;2971;52.420;7.080;2023-02-25T18:45:20;6.20;;;2.43;;
5890;SDS011;2971;52.420;7.080;2023-02-25T18:47:46;7.03;;;2.57;;
5890;SDS011;2971;52.420;7.080;2023-02-25T18:50:13;10.60;;;4.20;;
5890;SDS011;2971;52.420;7.080;2023-02-25T18:52:39;11.73;;;5.70;;
5890;SDS011;2971;52.420;7.080;2023-02-25T18:55:05;8.00;;;3.70;;
5890;SDS011;2971;52.420;7.080;2023-02-25T18:57:31;5.33;;;2.87;;
5890;SDS011;2971;52.420;7.080;2023-02-25T18:59:57;9.23;;;3.07;;
5890;SDS011;2971;52.420;7.080;2023-02-25T19:04:47;6.43;;;2.53;;
5890;SDS011;2971;52.420;7.080;2023-02-25T19:07:13;7.77;;;3.43;;
5890;SDS011;2971;52.420;7.080;2023-02-25T19:09:38;5.83;;;2.67;;
5890;SDS011;2971;52.420;7.080;2023-02-25T19:12:03;6.53;;;2.70;;
5890;SDS011;2971;52.420;7.080;2023-02-25T19:14:29;6.03;;;1.90;;
5890;SDS011;2971;52.420;7.080;2023-02-25T19:16:55;5.80;;;1.80;;
5890;SDS011;2971;52.420;7.080;2023-02-25T19:19:20;7.00;;;2.07;;
5890;SDS011;2971;52.420;7.080;2023-02-25T19:21:46;4.10;;;1.60;;
5890;SDS011;2971;52.420;7.080;2023-02-25T19:24:12;7.37;;;2.17;;
5890;SDS011;2971;52.420;7.080;2023-02-25T19:26:37;6.00;;;1.90;;
5890;SDS011;2971;52.420;7.080;2023-02-25T19:29:03;9.07;;;2.30;;
5890;SDS011;2971;52.420;7.080;2023-02-25T19:31:28;7.20;;;2.77;;
5890;SDS011;2971;52.420;7.080;2023-02-25T19:33:54;4.83;;;2.37;;
5890;SDS011;2971;52.420;7.080;2023-02-25T19:36:19;5.50;;;2.10;;
5890;SDS011;2971;52.420;7.080;2023-02-25T19:38:45;6.63;;;2.20;;
5890;SDS011;2971;52.420;7.080;2023-02-25T19:41:10;6.20;;;2.30;;
5890;SDS011;2971;52.420;7.080;2023-02-25T19:43:38;7.80;;;2.70;;
5890;SDS011;2971;52.420;7.080;2023-02-25T19:46:07;6.70;;;2.37;;
5890;SDS011;2971;52.420;7.080;2023-02-25T19:48:32;6.17;;;2.30;;
5890;SDS011;2971;52.420;7.080;2023-02-25T19:50:58;6.13;;;2.30;;
5890;SDS011;2971;52.420;7.080;2023-02-25T19:53:29;7.27;;;2.67;;
5890;SDS011;2971;52.420;7.080;2023-02-25T19:55:55;6.57;;;2.53;;
5890;SDS011;2971;52.420;7.080;2023-02-25T19:58:21;6.00;;;2.93;;
5890;SDS011;2971;52.420;7.080;2023-02-25T20:00:46;7.83;;;3.33;;
5890;SDS011;2971;52.420;7.080;2023-02-25T20:03:12;6.93;;;3.80;;
5890;SDS011;2971;52.420;7.080;2023-02-25T20:05:38;7.50;;;2.50;;
5890;SDS011;2971;52.420;7.080;2023-02-25T20:08:04;7.73;;;2.93;;
5890;SDS011;2971;52.420;7.080;2023-02-25T20:10:29;8.83;;;3.63;;
5890;SDS011;2971;52.420;7.080;2023-02-25T20:12:55;7.10;;;2.80;;
5890;SDS011;2971;52.420;7.080;2023-02-25T20:15:20;8.13;;;2.70;;